Ana Sayfa
METAR-TAF:

METAR-TAF

Havaalanları :

Cebelitarık Havalimanı

Cebelitarık, Cebelitarık

Enlem: 36-09N, Boylam: 005-21W, yükseklik: 5 m

Güncel hava durumu gözlemi

Rapor saat 19:50 UTC de 34 dakika önce yapıldı.
Rüzgar batıdan 13 kt
Sıcaklık 22°C
Nem 73%
Basınç 1014 hPa
Görüş mesafesi 10 km veya daha fazla

METAR: LXGB 051950Z AUTO 27013KT 9999 // NCD 22/17 Q1014

Saat: 22:24 (20:24 UTC)

Tahmin

Rapor saat 13:40 UTC de 6 saat ve 44 dakika önce yapıldı.
Ayın 05'si saat 15 UTC'den ayın 05'si saat 23 UTC'ye kadar geçerli Tahmin
Rüzgar batı/güneybatıdan 9 kt
Görüş mesafesi 10 km veya daha fazla
2500 ft yükseklikte az bulutlu

TAF: LXGB 051340Z 0515/0523 24009KT 9999 FEW025

4.000'den fazla havaalanı için hava durumu gözlemleri ve tahminleri (METAR ve TAF raporları).

Kullanılabilir istasyonlar harita üzerinde sarı ve kırmızı noktalarla gösterilir.

İstasyonun adını görmek için fareyi noktanın üzerinde gezdirin.

Sonrasında hava gözlem ve tahminlerini görmek için tıklayın.

Haritayı değiştirmek için: yaklaştırmak için siyah artı işaretli yeşil düğmeye ve uzaklaştırmak için de eksi işaretli düğmeye hızla tıklayın; bitişik haritalar için yeşil okları kullanın.


METAR-TAF: